createdAt,value
2018-04-15T00:06:08.667Z,83.10
2018-04-15T00:08:34.806Z,83.90
2018-04-15T00:11:00.938Z,84.90
2018-04-15T00:13:27.083Z,85.50
2018-04-15T00:15:53.955Z,85.90
2018-04-15T00:18:20.694Z,85.90
2018-04-15T00:20:47.212Z,87.40
2018-04-15T00:23:13.812Z,87.60
2018-04-15T00:25:40.935Z,88.50
2018-04-15T00:28:07.551Z,88.50
2018-04-15T00:30:34.106Z,89.70
2018-04-15T00:33:01.085Z,89.80
2018-04-15T00:35:28.373Z,90.30
2018-04-15T00:37:55.828Z,90.70
2018-04-15T00:40:22.511Z,90.70
2018-04-15T00:42:49.737Z,90.80
2018-04-15T00:45:16.461Z,90.80
2018-04-15T00:47:43.311Z,90.80
2018-04-15T00:50:10.598Z,90.70
2018-04-15T00:52:37.639Z,91.10
2018-04-15T00:55:05.471Z,90.90
2018-04-15T00:57:32.096Z,91.10
2018-04-15T00:59:59.587Z,91.10
2018-04-15T01:02:27.980Z,91.00
2018-04-15T01:04:59.802Z,91.30
2018-04-15T01:07:28.911Z,91.50
2018-04-15T01:09:59.430Z,91.70
2018-04-15T01:12:33.077Z,91.70
2018-04-15T01:15:05.061Z,92.10
2018-04-15T01:17:51.719Z,91.80
2018-04-15T01:20:33.777Z,91.80
2018-04-15T01:23:04.664Z,92.00
2018-04-15T01:25:34.682Z,92.00
2018-04-15T01:28:03.657Z,92.20
2018-04-15T01:30:33.652Z,92.20
2018-04-15T01:33:02.570Z,92.40
2018-04-15T01:35:32.595Z,92.80
2018-04-15T01:38:02.857Z,92.40
2018-04-15T01:40:32.600Z,92.70
2018-04-15T01:42:59.535Z,92.70
2018-04-15T01:45:27.589Z,92.80
2018-04-15T01:47:54.547Z,92.80
2018-04-15T01:50:21.248Z,92.80
2018-04-15T01:52:47.552Z,92.90
2018-04-15T01:55:13.850Z,92.90
2018-04-15T01:57:40.059Z,93.10
2018-04-15T02:00:06.297Z,93.30
2018-04-15T02:02:32.611Z,93.20
2018-04-15T02:04:58.863Z,93.30
2018-04-15T02:07:25.388Z,93.20
2018-04-15T02:09:51.575Z,93.30
2018-04-15T02:12:18.490Z,93.40
2018-04-15T02:14:44.690Z,93.40
2018-04-15T02:17:10.953Z,93.40
2018-04-15T02:19:37.179Z,93.50
2018-04-15T02:22:04.132Z,93.50
2018-04-15T02:24:31.042Z,93.60
2018-04-15T02:26:57.192Z,93.60
2018-04-15T02:29:24.174Z,93.80
2018-04-15T02:31:50.374Z,93.70
2018-04-15T02:34:17.284Z,93.70
2018-04-15T02:36:43.530Z,93.70
2018-04-15T02:39:09.825Z,93.70
2018-04-15T02:41:36.078Z,93.70
2018-04-15T02:44:02.345Z,93.80
2018-04-15T02:46:29.262Z,94.20
2018-04-15T02:48:55.606Z,93.80
2018-04-15T02:51:22.580Z,93.90
2018-04-15T02:53:48.759Z,93.80
2018-04-15T02:56:14.985Z,93.80
2018-04-15T02:58:41.163Z,93.90
2018-04-15T03:01:07.371Z,93.80
2018-04-15T03:03:34.291Z,94.30
2018-04-15T03:06:00.491Z,94.00
2018-04-15T03:08:26.703Z,94.00
2018-04-15T03:10:52.930Z,93.90
2018-04-15T03:13:19.156Z,94.00
2018-04-15T03:15:45.334Z,94.00
2018-04-15T03:18:11.476Z,94.00
2018-04-15T03:20:37.693Z,94.00
2018-04-15T03:23:03.913Z,94.00
2018-04-15T03:25:30.157Z,94.00
2018-04-15T03:27:56.389Z,94.00
2018-04-15T03:30:22.602Z,94.20
2018-04-15T03:32:48.781Z,94.20
2018-04-15T03:35:15.223Z,94.40
2018-04-15T03:37:41.395Z,94.20
2018-04-15T03:40:07.661Z,94.20
2018-04-15T03:42:33.898Z,94.10
2018-04-15T03:45:00.088Z,94.10
2018-04-15T03:47:26.323Z,94.00
2018-04-15T03:49:52.523Z,94.00
2018-04-15T03:52:18.712Z,94.10
2018-04-15T03:54:44.938Z,94.10
2018-04-15T03:57:11.228Z,94.10
2018-04-15T03:59:37.419Z,94.20
2018-04-15T04:02:03.922Z,94.60
2018-04-15T04:04:30.177Z,94.20
2018-04-15T04:06:56.358Z,94.10
2018-04-15T04:09:22.537Z,94.50
2018-04-15T04:11:48.747Z,94.20
2018-04-15T04:14:15.005Z,94.20
2018-04-15T04:16:41.246Z,94.20
2018-04-15T04:19:19.579Z,94.20
2018-04-15T04:21:57.937Z,94.30
2018-04-15T04:24:36.358Z,94.30
2018-04-15T04:27:02.603Z,94.20
2018-04-15T04:29:28.811Z,94.20
2018-04-15T04:31:55.061Z,94.30
2018-04-15T04:34:21.288Z,94.40
2018-04-15T04:36:47.483Z,94.50
2018-04-15T04:39:13.726Z,94.40
2018-04-15T04:41:39.859Z,94.40
2018-04-15T04:44:06.042Z,94.30
2018-04-15T04:46:32.214Z,94.40
2018-04-15T04:48:58.351Z,94.30
2018-04-15T04:51:24.493Z,94.30
2018-04-15T04:53:50.606Z,94.30
2018-04-15T04:56:16.732Z,94.30
2018-04-15T04:58:42.855Z,94.10
2018-04-15T05:01:09.029Z,94.20
2018-04-15T05:03:35.221Z,94.30
2018-04-15T05:06:01.347Z,94.20
2018-04-15T05:08:27.496Z,94.20
2018-04-15T05:10:53.672Z,94.20
2018-04-15T05:13:19.818Z,94.20
2018-04-15T05:15:46.009Z,94.20
2018-04-15T05:18:12.134Z,94.10
2018-04-15T05:20:38.263Z,94.10
2018-04-15T05:23:04.402Z,94.20
2018-04-15T05:25:30.510Z,94.30
2018-04-15T05:27:56.611Z,94.30
2018-04-15T05:30:22.786Z,94.40
2018-04-15T05:32:48.932Z,94.40
2018-04-15T05:35:15.074Z,94.20
2018-04-15T05:37:41.248Z,94.30
2018-04-15T05:40:07.446Z,94.50
2018-04-15T05:42:33.613Z,94.50
2018-04-15T05:45:00.514Z,94.30
2018-04-15T05:47:26.714Z,94.30
2018-04-15T05:49:53.598Z,94.30
2018-04-15T05:52:19.757Z,94.00
2018-04-15T05:54:46.680Z,94.00
2018-04-15T05:57:12.844Z,94.00
2018-04-15T05:59:38.996Z,94.10
2018-04-15T06:02:05.139Z,94.20
2018-04-15T06:04:31.284Z,94.20
2018-04-15T06:06:57.461Z,94.30
2018-04-15T06:09:23.614Z,94.20
2018-04-15T06:11:49.754Z,94.00
2018-04-15T06:14:15.874Z,94.10
2018-04-15T06:16:42.083Z,94.00
2018-04-15T06:19:08.247Z,94.00
2018-04-15T06:21:34.491Z,94.00
2018-04-15T06:24:01.386Z,94.00
2018-04-15T06:26:27.623Z,94.00
2018-04-15T06:28:53.775Z,94.10
2018-04-15T06:31:19.922Z,94.20
2018-04-15T06:33:46.244Z,94.20
2018-04-15T06:36:12.522Z,94.00
2018-04-15T06:38:38.749Z,94.00
2018-04-15T06:41:04.992Z,93.70
2018-04-15T06:43:31.177Z,93.80
2018-04-15T06:45:57.746Z,93.40
2018-04-15T06:48:26.131Z,93.20
2018-04-15T06:50:54.706Z,93.10
2018-04-15T06:53:22.850Z,92.90
2018-04-15T06:55:49.483Z,92.90
2018-04-15T06:58:16.703Z,92.20
2018-04-15T07:00:43.541Z,92.20
2018-04-15T07:03:10.002Z,92.20
2018-04-15T07:05:36.771Z,92.20
2018-04-15T07:08:03.409Z,92.20
2018-04-15T07:10:29.709Z,92.30
2018-04-15T07:12:56.859Z,92.10
2018-04-15T07:15:23.564Z,92.10
2018-04-15T07:17:49.896Z,92.20
2018-04-15T07:20:16.330Z,91.70
2018-04-15T07:22:43.487Z,91.30
2018-04-15T07:25:16.250Z,91.30
2018-04-15T07:27:43.132Z,91.10
2018-04-15T07:30:09.909Z,90.70
2018-04-15T07:32:36.277Z,90.10
2018-04-15T07:35:03.163Z,89.60
2018-04-15T07:37:30.868Z,89.60
2018-04-15T07:40:03.660Z,90.00
2018-04-15T07:42:31.731Z,90.30
2018-04-15T07:45:04.221Z,90.10
2018-04-15T07:47:34.683Z,89.80
2018-04-15T08:02:32.869Z,89.20
2018-04-15T08:04:59.395Z,85.80
2018-04-15T08:07:25.915Z,86.30
2018-04-15T08:10:01.977Z,85.20
2018-04-15T08:12:28.297Z,84.30
2018-04-15T08:15:13.012Z,83.40
2018-04-15T08:17:39.502Z,83.10
2018-04-15T08:20:07.806Z,83.30
2018-04-15T08:22:34.458Z,84.10
2018-04-15T08:55:23.289Z,81.70
2018-04-15T08:57:55.019Z,81.40
2018-04-15T09:02:57.350Z,81.40
2018-04-15T09:05:27.575Z,81.80
2018-04-15T09:07:56.215Z,80.10
2018-04-15T09:10:28.501Z,78.80
2018-04-15T09:12:56.749Z,79.30
2018-04-15T09:15:24.688Z,76.60
2018-04-15T10:03:38.704Z,69.40
2018-04-15T10:06:05.958Z,69.90
2018-04-15T10:08:33.784Z,69.30
2018-04-15T10:11:00.869Z,69.20
2018-04-15T10:13:27.358Z,68.90
2018-04-15T10:15:57.990Z,68.40
2018-04-15T10:18:26.113Z,68.50
2018-04-15T10:21:00.167Z,67.80
2018-04-15T10:23:26.717Z,68.50
2018-04-15T10:51:25.322Z,64.60
2018-04-15T10:54:01.919Z,64.60
2018-04-15T10:56:33.224Z,65.10
2018-04-15T10:59:06.783Z,65.10
2018-04-15T11:01:35.565Z,65.50
2018-04-15T11:07:24.254Z,62.70
2018-04-15T11:09:53.538Z,62.90
2018-04-15T11:12:26.418Z,59.70
2018-04-15T11:14:57.351Z,59.20
2018-04-15T11:17:30.930Z,61.70
2018-04-15T11:19:57.833Z,61.50
2018-04-15T11:22:26.854Z,61.50
2018-04-15T11:27:34.503Z,59.50
2018-04-15T11:30:03.948Z,58.90
2018-04-15T11:32:37.432Z,60.20
2018-04-15T11:35:06.538Z,61.40
2018-04-15T11:37:32.697Z,61.30
2018-04-15T11:42:42.620Z,59.50
2018-04-15T11:45:11.510Z,58.30
2018-04-15T11:47:39.487Z,58.30
2018-04-15T11:50:11.350Z,57.20
2018-04-15T11:52:41.542Z,57.20
2018-04-15T11:55:10.615Z,57.20
2018-04-15T11:57:36.870Z,56.70
2018-04-15T12:00:03.002Z,57.10
2018-04-15T12:02:29.255Z,56.00
2018-04-15T12:04:55.356Z,55.10
2018-04-15T12:07:22.283Z,55.50
2018-04-15T12:09:48.790Z,56.10
2018-04-15T12:12:14.957Z,55.00
2018-04-15T12:14:45.526Z,55.20
2018-04-15T12:17:21.756Z,55.10
2018-04-15T12:19:54.900Z,54.40
2018-04-15T12:22:24.379Z,54.50
2018-04-15T12:24:51.031Z,53.40
2018-04-15T12:27:17.846Z,54.60
2018-04-15T12:29:46.247Z,54.70
2018-04-15T12:32:15.383Z,52.90
2018-04-15T12:34:48.953Z,52.90
2018-04-15T12:37:21.118Z,53.10
2018-04-15T12:39:48.628Z,53.90
2018-04-15T12:42:17.806Z,53.80
2018-04-15T12:44:47.953Z,54.40
2018-04-15T12:47:14.623Z,54.50
2018-04-15T12:49:42.586Z,54.80
2018-04-15T12:52:19.759Z,54.00
2018-04-15T12:54:46.182Z,54.30
2018-04-15T12:57:13.706Z,53.60
2018-04-15T12:59:40.904Z,52.40
2018-04-15T13:02:07.851Z,50.90
2018-04-15T13:04:34.049Z,50.80
2018-04-15T13:07:00.162Z,49.10
2018-04-15T13:24:06.741Z,48.20
2018-04-15T13:26:44.993Z,48.10
2018-04-15T13:29:35.423Z,48.10
2018-04-15T13:32:04.796Z,49.30
2018-04-15T13:34:32.994Z,48.50
2018-04-15T13:37:00.383Z,48.80
2018-04-15T15:08:31.142Z,44.90
2018-04-15T15:11:01.789Z,44.80
2018-04-15T15:13:29.168Z,43.10
2018-04-15T15:15:59.945Z,43.50
2018-04-15T15:18:34.367Z,43.60
2018-04-15T15:21:04.155Z,42.80
2018-04-15T15:26:23.436Z,42.30
2018-04-15T15:29:04.246Z,43.00
2018-04-15T15:31:37.346Z,43.00
2018-04-15T15:34:12.803Z,42.90
2018-04-15T15:36:40.095Z,43.70
2018-04-15T15:39:08.137Z,45.20
2018-04-15T15:41:34.512Z,46.00
2018-04-15T15:44:01.644Z,46.20
2018-04-15T15:46:28.197Z,44.90
2018-04-15T15:48:54.946Z,46.20
2018-04-15T15:51:21.636Z,44.30
2018-04-15T15:53:48.514Z,45.00
2018-04-15T15:56:15.869Z,45.80
2018-04-15T15:58:42.033Z,45.80
2018-04-15T16:01:08.259Z,46.20
2018-04-15T16:03:34.747Z,47.10
2018-04-15T16:06:00.920Z,47.60
2018-04-15T16:08:28.334Z,48.10
2018-04-15T16:10:54.488Z,48.60
2018-04-15T16:13:20.656Z,48.20
2018-04-15T16:15:46.894Z,47.60
2018-04-15T16:18:13.218Z,46.60
2018-04-15T16:20:39.400Z,46.70
2018-04-15T16:23:11.515Z,47.10
2018-04-15T16:26:05.020Z,46.40
2018-04-15T16:28:33.568Z,46.70
2018-04-15T16:31:00.997Z,47.50
2018-04-15T16:33:27.504Z,48.20
2018-04-15T16:35:54.932Z,48.60
2018-04-15T16:38:25.243Z,48.10
2018-04-15T16:40:53.822Z,49.20
2018-04-15T16:43:34.780Z,49.50
2018-04-15T16:46:02.121Z,49.50
2018-04-15T16:48:29.413Z,50.00
2018-04-15T16:51:17.088Z,49.90
2018-04-15T18:47:41.216Z,64.00
2018-04-15T18:50:07.732Z,64.60
2018-04-15T18:52:34.013Z,65.10
2018-04-15T18:55:00.275Z,65.60
2018-04-15T18:57:26.451Z,66.50
2018-04-15T18:59:53.373Z,68.90
2018-04-15T19:02:20.266Z,68.40
2018-04-15T19:04:46.438Z,68.20
2018-04-15T19:07:12.546Z,67.90
2018-04-15T19:09:39.783Z,68.80
2018-04-15T19:12:05.986Z,66.80
2018-04-15T19:14:32.090Z,68.40
2018-04-15T19:17:00.517Z,68.70
2018-04-15T19:19:26.693Z,68.60
2018-04-15T19:22:07.441Z,69.20
2018-04-15T19:24:34.078Z,70.80
2018-04-15T19:27:07.273Z,71.60
2018-04-15T19:35:49.674Z,72.30
2018-04-15T19:38:25.038Z,73.20
2018-04-15T19:40:58.617Z,73.10
2018-04-15T19:43:26.821Z,74.10
2018-04-15T19:45:57.498Z,74.00
2018-04-15T19:48:29.468Z,74.10
2018-04-15T22:44:17.974Z,87.30
2018-04-15T22:46:44.255Z,87.10
2018-04-15T22:49:17.224Z,87.00
2018-04-15T22:51:44.127Z,87.70
2018-04-15T22:54:10.265Z,87.00
2018-04-15T22:56:42.350Z,87.10
2018-04-15T22:59:08.457Z,87.30
2018-04-15T23:01:34.601Z,87.40
2018-04-15T23:04:01.483Z,88.10
2018-04-15T23:06:27.591Z,88.10
2018-04-15T23:08:53.694Z,88.30
2018-04-15T23:11:19.817Z,88.30
2018-04-15T23:13:45.932Z,88.30
2018-04-15T23:16:12.129Z,88.70
2018-04-15T23:18:38.261Z,88.90
2018-04-15T23:21:04.442Z,89.90
2018-04-15T23:23:31.297Z,90.00
2018-04-15T23:25:58.152Z,89.70
2018-04-15T23:28:24.241Z,89.60
2018-04-15T23:30:50.374Z,89.40
2018-04-15T23:33:16.485Z,89.40
2018-04-15T23:35:42.612Z,90.00
2018-04-15T23:38:08.757Z,89.50
2018-04-15T23:40:34.878Z,89.50
2018-04-15T23:43:01.018Z,89.50
2018-04-15T23:45:27.139Z,89.40
2018-04-15T23:47:53.270Z,89.80
2018-04-15T23:50:20.149Z,89.50
2018-04-15T23:52:46.270Z,89.40
2018-04-15T23:55:12.388Z,89.40
2018-04-15T23:57:38.494Z,89.10
